createdAt,value
2018-06-20T00:00:11.038Z,1018.85
2018-06-20T00:01:56.006Z,1018.79
2018-06-20T00:03:40.931Z,1018.86
2018-06-20T00:05:25.857Z,1018.71
2018-06-20T00:07:10.788Z,1018.84
2018-06-20T00:08:55.917Z,1018.85
2018-06-20T00:10:40.891Z,1018.74
2018-06-20T00:12:25.865Z,1018.72
2018-06-20T00:14:10.791Z,1018.67
2018-06-20T00:15:55.716Z,1018.67
2018-06-20T00:17:40.684Z,1018.61
2018-06-20T00:19:25.609Z,1018.62
2018-06-20T00:21:10.534Z,1018.60
2018-06-20T00:22:55.460Z,1018.58
2018-06-20T00:24:40.536Z,1018.51
2018-06-20T00:32:33.411Z,1018.44
2018-06-20T00:34:18.372Z,1018.41
2018-06-20T00:36:03.297Z,1018.45
2018-06-20T00:37:48.222Z,1018.45
2018-06-20T00:39:33.148Z,1018.41
2018-06-20T00:41:18.073Z,1018.49
2018-06-20T00:43:02.998Z,1018.51
2018-06-20T00:44:47.974Z,1018.46
2018-06-20T00:46:32.948Z,1018.53
2018-06-20T00:48:17.878Z,1018.53
2018-06-20T00:50:02.800Z,1018.61
2018-06-20T00:51:47.725Z,1018.52
2018-06-20T00:53:32.651Z,1018.48
2018-06-20T00:55:17.577Z,1018.52
2018-06-20T00:57:02.505Z,1018.42
2018-06-20T00:58:47.486Z,1018.45
2018-06-20T01:00:32.409Z,1018.39
2018-06-20T01:02:17.385Z,1018.37
2018-06-20T01:04:02.312Z,1018.41
2018-06-20T01:05:47.288Z,1018.41
2018-06-20T01:07:32.216Z,1018.36
2018-06-20T01:09:17.142Z,1018.31
2018-06-20T01:11:02.114Z,1018.31
2018-06-20T01:12:47.081Z,1018.30
2018-06-20T01:14:32.007Z,1018.35
2018-06-20T01:16:17.143Z,1018.41
2018-06-20T01:18:02.108Z,1018.41
2018-06-20T01:19:47.072Z,1018.33
2018-06-20T01:21:31.998Z,1018.36
2018-06-20T01:23:16.977Z,1018.24
2018-06-20T01:25:01.946Z,1018.21
2018-06-20T01:26:47.071Z,1018.19
2018-06-20T01:28:31.999Z,1018.18
2018-06-20T01:30:16.925Z,1018.10
2018-06-20T01:32:01.852Z,1018.09
2018-06-20T01:33:46.826Z,1018.05
2018-06-20T01:35:31.755Z,1018.10
2018-06-20T01:37:16.681Z,1018.09
2018-06-20T01:39:01.607Z,1018.11
2018-06-20T01:40:46.533Z,1018.12
2018-06-20T01:42:31.511Z,1018.11
2018-06-20T01:44:16.490Z,1018.16
2018-06-20T01:46:01.416Z,1018.14
2018-06-20T01:47:46.343Z,1018.19
2018-06-20T01:49:31.267Z,1018.19
2018-06-20T01:51:16.493Z,1018.10
2018-06-20T01:53:01.419Z,1018.10
2018-06-20T01:54:46.344Z,1018.12
2018-06-20T01:56:31.321Z,1018.08
2018-06-20T01:58:16.289Z,1018.13
2018-06-20T02:00:01.266Z,1018.16
2018-06-20T02:01:46.490Z,1018.14
2018-06-20T02:03:31.415Z,1018.14
2018-06-20T02:05:16.392Z,1018.14
2018-06-20T02:07:01.368Z,1018.21
2018-06-20T02:08:46.345Z,1018.09
2018-06-20T02:10:31.273Z,1018.14
2018-06-20T02:12:16.199Z,1018.09
2018-06-20T02:14:01.126Z,1018.15
2018-06-20T02:15:46.100Z,1018.03
2018-06-20T02:17:31.029Z,1018.15
2018-06-20T02:19:15.955Z,1018.12
2018-06-20T02:26:45.552Z,1017.95
2018-06-20T02:28:30.477Z,1017.95
2018-06-20T02:30:15.492Z,1018.00
2018-06-20T02:32:00.416Z,1018.01
2018-06-20T02:33:45.391Z,1017.96
2018-06-20T02:35:30.318Z,1018.01
2018-06-20T02:37:15.259Z,1018.06
2018-06-20T02:39:00.211Z,1018.03
2018-06-20T02:40:45.185Z,1018.03
2018-06-20T02:42:30.113Z,1018.02
2018-06-20T02:44:15.079Z,1018.09
2018-06-20T02:46:00.103Z,1018.03
2018-06-20T02:47:50.034Z,1018.06
2018-06-20T02:49:35.011Z,1018.02
2018-06-20T02:51:19.939Z,1018.06
2018-06-20T02:53:04.864Z,1017.99
2018-06-20T02:54:49.788Z,1018.02
2018-06-20T02:56:34.714Z,1017.99
2018-06-20T02:58:19.682Z,1017.92
2018-06-20T03:00:04.608Z,1017.92
2018-06-20T03:01:49.576Z,1017.92
2018-06-20T03:03:34.550Z,1017.86
2018-06-20T03:05:27.784Z,1017.88
2018-06-20T03:07:12.752Z,1017.82
2018-06-20T03:08:57.678Z,1017.82
2018-06-20T03:10:42.602Z,1017.86
2018-06-20T03:12:27.527Z,1017.87
2018-06-20T03:14:12.452Z,1017.87
2018-06-20T03:15:57.377Z,1017.85
2018-06-20T03:17:42.305Z,1017.89
2018-06-20T03:19:27.270Z,1017.84
2018-06-20T03:21:12.253Z,1017.96
2018-06-20T03:22:57.169Z,1017.88
2018-06-20T03:24:42.145Z,1017.89
2018-06-20T03:27:39.270Z,1017.76
2018-06-20T03:29:24.195Z,1017.75
2018-06-20T03:31:09.132Z,1017.86
2018-06-20T03:32:54.045Z,1017.82
2018-06-20T03:34:38.969Z,1017.74
2018-06-20T03:36:23.894Z,1017.78
2018-06-20T03:38:08.819Z,1017.82
2018-06-20T03:39:53.793Z,1017.84
2018-06-20T03:41:38.721Z,1017.84
2018-06-20T03:43:23.646Z,1017.79
2018-06-20T03:45:08.571Z,1017.78
2018-06-20T03:46:53.546Z,1017.82
2018-06-20T03:48:38.470Z,1017.73
2018-06-20T03:50:23.396Z,1017.74
2018-06-20T03:52:08.322Z,1017.65
2018-06-20T03:53:53.297Z,1017.78
2018-06-20T03:55:38.223Z,1017.73
2018-06-20T03:57:23.147Z,1017.71
2018-06-20T03:59:08.072Z,1017.75
2018-06-20T04:00:53.000Z,1017.73
2018-06-20T04:02:37.931Z,1017.79
2018-06-20T04:04:22.944Z,1017.84
2018-06-20T04:06:07.922Z,1017.71
2018-06-20T04:07:52.846Z,1017.78
2018-06-20T04:09:37.821Z,1017.77
2018-06-20T04:11:22.748Z,1017.80
2018-06-20T04:13:07.675Z,1017.79
2018-06-20T04:14:52.598Z,1017.87
2018-06-20T04:16:37.572Z,1017.77
2018-06-20T04:18:22.558Z,1017.94
2018-06-20T04:20:07.422Z,1017.93
2018-06-20T04:21:52.347Z,1017.98
2018-06-20T04:23:37.321Z,1017.93
2018-06-20T04:25:22.296Z,1017.95
2018-06-20T04:27:07.272Z,1017.89
2018-06-20T04:28:52.241Z,1017.87
2018-06-20T04:30:37.166Z,1017.79
2018-06-20T04:32:22.092Z,1017.85
2018-06-20T04:34:07.017Z,1017.79
2018-06-20T04:35:51.941Z,1017.81
2018-06-20T04:37:36.916Z,1017.80
2018-06-20T04:39:21.841Z,1017.80
2018-06-20T04:41:06.766Z,1017.85
2018-06-20T04:42:51.790Z,1017.86
2018-06-20T04:44:36.733Z,1017.83
2018-06-20T04:46:21.642Z,1017.82
2018-06-20T04:48:06.567Z,1017.84
2018-06-20T04:49:51.544Z,1017.82
2018-06-20T04:51:36.468Z,1017.74
2018-06-20T04:53:21.395Z,1017.82
2018-06-20T04:55:06.318Z,1017.84
2018-06-20T04:56:51.243Z,1017.87
2018-06-20T04:58:36.216Z,1017.93
2018-06-20T05:00:21.141Z,1017.95
2018-06-20T05:02:06.067Z,1017.93
2018-06-20T05:03:50.992Z,1017.93
2018-06-20T05:05:35.970Z,1018.04
2018-06-20T05:07:20.893Z,1018.04
2018-06-20T05:09:11.022Z,1018.05
2018-06-20T05:10:55.947Z,1018.04
2018-06-20T05:12:40.922Z,1018.02
2018-06-20T05:14:25.848Z,1018.01
2018-06-20T05:16:10.773Z,1018.01
2018-06-20T05:17:55.788Z,1018.04
2018-06-20T05:19:40.713Z,1017.99
2018-06-20T05:21:25.637Z,1018.02
2018-06-20T05:23:10.562Z,1017.96
2018-06-20T05:24:55.488Z,1018.04
2018-06-20T05:26:40.462Z,1017.96
2018-06-20T05:28:25.439Z,1017.95
2018-06-20T05:30:10.371Z,1017.93
2018-06-20T05:31:55.390Z,1017.93
2018-06-20T05:33:40.413Z,1017.88
2018-06-20T05:35:25.441Z,1017.96
2018-06-20T05:37:10.366Z,1017.96
2018-06-20T05:38:55.290Z,1018.01
2018-06-20T05:40:40.216Z,1017.99
2018-06-20T05:42:25.140Z,1018.04
2018-06-20T05:44:10.065Z,1018.02
2018-06-20T05:45:54.989Z,1018.10
2018-06-20T05:47:39.914Z,1018.08
2018-06-20T05:49:24.888Z,1018.04
2018-06-20T05:51:09.812Z,1018.09
2018-06-20T05:52:54.737Z,1018.04
2018-06-20T05:54:39.712Z,1018.01
2018-06-20T05:56:24.639Z,1017.94
2018-06-20T05:58:09.614Z,1018.04
2018-06-20T05:59:54.537Z,1018.09
2018-06-20T06:01:39.467Z,1018.09
2018-06-20T06:03:24.391Z,1018.08
2018-06-20T06:05:09.400Z,1018.03
2018-06-20T06:09:55.810Z,1018.01
2018-06-20T06:11:40.775Z,1018.02
2018-06-20T06:13:25.748Z,1018.06
2018-06-20T06:15:10.672Z,1018.07
2018-06-20T06:19:39.726Z,1018.07
2018-06-20T06:21:24.656Z,1018.10
2018-06-20T06:23:09.589Z,1018.11
2018-06-20T06:24:54.503Z,1018.11
2018-06-20T06:26:39.431Z,1018.10
2018-06-20T06:28:24.352Z,1018.17
2018-06-20T06:30:09.278Z,1018.19
2018-06-20T06:31:54.201Z,1018.18
2018-06-20T06:33:39.175Z,1018.20
2018-06-20T06:35:24.102Z,1018.16
2018-06-20T06:37:09.093Z,1018.16
2018-06-20T06:38:54.052Z,1018.12
2018-06-20T06:40:38.977Z,1018.19
2018-06-20T06:42:23.901Z,1018.14
2018-06-20T06:44:08.825Z,1018.15
2018-06-20T06:45:53.750Z,1018.19
2018-06-20T06:47:38.675Z,1018.15
2018-06-20T06:49:23.605Z,1018.10
2018-06-20T06:51:08.532Z,1018.06
2018-06-20T06:52:53.507Z,1018.10
2018-06-20T06:54:38.490Z,1018.11
2018-06-20T06:56:23.472Z,1018.06
2018-06-20T06:58:08.405Z,1018.05
2018-06-20T06:59:53.336Z,1018.11
2018-06-20T07:01:38.267Z,1018.12
2018-06-20T07:03:23.202Z,1018.12
2018-06-20T07:05:08.131Z,1018.08
2018-06-20T07:06:53.063Z,1018.14
2018-06-20T07:08:37.995Z,1018.07
2018-06-20T07:10:22.977Z,1018.14
2018-06-20T07:20:49.990Z,1018.18
2018-06-20T07:22:34.922Z,1018.19
2018-06-20T07:24:19.933Z,1018.07
2018-06-20T07:26:04.881Z,1018.12
2018-06-20T07:27:49.812Z,1018.09
2018-06-20T07:29:34.794Z,1018.13
2018-06-20T07:31:19.725Z,1018.09
2018-06-20T07:33:04.658Z,1018.12
2018-06-20T07:34:49.638Z,1018.17
2018-06-20T07:36:34.572Z,1018.16
2018-06-20T07:37:48.916Z,1018.16
2018-06-20T07:39:33.897Z,1018.20
2018-06-20T07:41:18.875Z,1018.20
2018-06-20T07:43:03.801Z,1018.21
2018-06-20T07:44:48.782Z,1018.18
2018-06-20T07:46:33.713Z,1018.17
2018-06-20T07:48:18.645Z,1018.10
2018-06-20T07:50:03.577Z,1018.14
2018-06-20T07:51:48.509Z,1018.12
2018-06-20T07:53:33.441Z,1018.14
2018-06-20T07:55:18.373Z,1018.13
2018-06-20T07:57:03.356Z,1018.13
2018-06-20T07:58:48.287Z,1018.17
2018-06-20T08:00:33.319Z,1018.13
2018-06-20T08:02:18.251Z,1018.25
2018-06-20T08:04:03.182Z,1018.16
2018-06-20T08:05:48.165Z,1018.17
2018-06-20T08:07:33.094Z,1018.28
2018-06-20T08:09:18.021Z,1018.27
2018-06-20T08:11:02.948Z,1018.27
2018-06-20T08:12:47.874Z,1018.36
2018-06-20T08:14:32.802Z,1018.30
2018-06-20T08:16:17.728Z,1018.37
2018-06-20T08:18:02.802Z,1018.29
2018-06-20T08:19:47.789Z,1018.22
2018-06-20T08:21:32.758Z,1018.14
2018-06-20T08:23:17.687Z,1018.20
2018-06-20T08:25:02.615Z,1018.16
2018-06-20T08:26:47.541Z,1018.21
2018-06-20T08:28:32.472Z,1018.23
2018-06-20T08:30:17.434Z,1018.24
2018-06-20T08:32:02.411Z,1018.21
2018-06-20T08:33:47.340Z,1018.19
2018-06-20T08:35:32.367Z,1018.15
2018-06-20T08:37:17.494Z,1018.22
2018-06-20T08:39:02.432Z,1018.19
2018-06-20T08:40:47.442Z,1018.18
2018-06-20T08:42:32.398Z,1018.23
2018-06-20T08:44:17.339Z,1018.18
2018-06-20T08:46:02.321Z,1018.14
2018-06-20T08:47:47.254Z,1018.28
2018-06-20T08:49:32.188Z,1018.33
2018-06-20T08:51:45.157Z,1018.36
2018-06-20T08:53:30.136Z,1018.32
2018-06-20T08:55:15.120Z,1018.36
2018-06-20T08:57:00.149Z,1018.31
2018-06-20T08:58:45.082Z,1018.35
2018-06-20T09:00:30.021Z,1018.36
2018-06-20T09:02:15.053Z,1018.39
2018-06-20T09:04:00.024Z,1018.38
2018-06-20T09:05:44.950Z,1018.44
2018-06-20T09:07:29.882Z,1018.48
2018-06-20T09:09:14.814Z,1018.48
2018-06-20T09:10:59.746Z,1018.51
2018-06-20T09:12:44.729Z,1018.63
2018-06-20T09:14:29.712Z,1018.60
2018-06-20T09:16:14.705Z,1018.63
2018-06-20T09:17:59.638Z,1018.64
2018-06-20T09:19:44.621Z,1018.54
2018-06-20T09:21:29.559Z,1018.51
2018-06-20T09:23:14.498Z,1018.59
2018-06-20T09:24:59.537Z,1018.52
2018-06-20T09:26:44.522Z,1018.60
2018-06-20T09:28:29.460Z,1018.53
2018-06-20T09:30:14.399Z,1018.50
2018-06-20T09:31:59.387Z,1018.42
2018-06-20T09:33:44.324Z,1018.55
2018-06-20T09:35:29.362Z,1018.64
2018-06-20T09:37:14.299Z,1018.59
2018-06-20T09:38:59.241Z,1018.56
2018-06-20T09:40:44.173Z,1018.58
2018-06-20T09:42:29.109Z,1018.63
2018-06-20T09:44:14.047Z,1018.63
2018-06-20T09:45:59.034Z,1018.61
2018-06-20T09:47:43.967Z,1018.53
2018-06-20T09:49:29.105Z,1018.58
2018-06-20T09:51:14.040Z,1018.68
2018-06-20T09:52:59.027Z,1018.76
2018-06-20T09:56:25.491Z,1018.64
2018-06-20T09:58:10.425Z,1018.62
2018-06-20T10:06:58.418Z,1019.14
2018-06-20T10:08:43.354Z,1018.79
2018-06-20T10:10:28.292Z,1018.87
2018-06-20T10:12:13.229Z,1019.18
2018-06-20T10:13:58.265Z,1019.33
2018-06-20T10:15:43.202Z,1019.38
2018-06-20T10:17:28.140Z,1019.24
2018-06-20T10:19:13.078Z,1019.09
2018-06-20T10:20:58.018Z,1019.15
2018-06-20T10:22:43.153Z,1019.16
2018-06-20T10:24:28.091Z,1019.28
2018-06-20T10:26:13.030Z,1019.26
2018-06-20T10:27:58.118Z,1019.31
2018-06-20T10:29:43.055Z,1019.36
2018-06-20T10:31:28.044Z,1019.31
2018-06-20T10:33:12.981Z,1019.31
2018-06-20T10:34:57.920Z,1019.29
2018-06-20T10:36:42.910Z,1019.35
2018-06-20T10:38:27.896Z,1019.31
2018-06-20T10:40:12.833Z,1019.33
2018-06-20T10:43:08.674Z,1019.34
2018-06-20T10:44:53.603Z,1019.41
2018-06-20T10:46:38.591Z,1019.47
2018-06-20T10:48:23.628Z,1019.51
2018-06-20T10:50:08.564Z,1019.53
2018-06-20T10:51:46.983Z,1019.47
2018-06-20T10:53:32.070Z,1019.51
2018-06-20T10:55:17.229Z,1019.60
2018-06-20T10:57:02.393Z,1019.50
2018-06-20T10:58:52.552Z,1019.39
2018-06-20T11:00:37.699Z,1019.51
2018-06-20T11:02:22.824Z,1019.62
2018-06-20T11:04:07.978Z,1019.46
2018-06-20T11:05:53.088Z,1019.51
2018-06-20T11:07:38.247Z,1019.43
2018-06-20T11:09:23.356Z,1019.40
2018-06-20T11:11:08.517Z,1019.56
2018-06-20T11:12:53.672Z,1019.62
2018-06-20T11:14:38.781Z,1019.68
2018-06-20T11:16:23.897Z,1019.56
2018-06-20T11:18:09.051Z,1019.54
2018-06-20T11:19:54.509Z,1019.50
2018-06-20T11:21:39.620Z,1019.62
2018-06-20T11:23:24.776Z,1019.66
2018-06-20T11:25:09.891Z,1019.71
2018-06-20T11:26:54.995Z,1019.68
2018-06-20T11:28:40.154Z,1019.72
2018-06-20T11:30:25.462Z,1019.69
2018-06-20T11:32:10.774Z,1019.83
2018-06-20T11:33:55.980Z,1019.89
2018-06-20T11:35:41.240Z,1019.99
2018-06-20T11:37:26.349Z,1020.06
2018-06-20T11:39:11.453Z,1019.97
2018-06-20T11:40:56.562Z,1020.01
2018-06-20T11:42:41.671Z,1020.04
2018-06-20T11:44:26.779Z,1019.99
2018-06-20T11:46:12.039Z,1020.01
2018-06-20T11:47:57.246Z,1020.07
2018-06-20T11:49:42.354Z,1020.03
2018-06-20T11:51:27.464Z,1019.91
2018-06-20T11:53:12.573Z,1019.79
2018-06-20T11:54:57.677Z,1019.53
2018-06-20T11:56:42.833Z,1019.43
2018-06-20T11:58:27.940Z,1019.32
2018-06-20T12:00:13.046Z,1019.15
2018-06-20T12:01:58.249Z,1019.06
2018-06-20T12:03:43.310Z,1019.17
2018-06-20T12:05:28.419Z,1019.35
2018-06-20T12:07:13.578Z,1019.40
2018-06-20T12:08:58.737Z,1019.47
2018-06-20T12:10:43.845Z,1019.55
2018-06-20T12:12:28.956Z,1019.78
2018-06-20T12:14:14.064Z,1019.88
2018-06-20T12:15:59.175Z,1019.78
2018-06-20T12:17:44.334Z,1019.79
2018-06-20T12:19:29.444Z,1019.83
2018-06-20T12:21:14.554Z,1019.83
2018-06-20T12:22:59.665Z,1019.85
2018-06-20T12:30:46.046Z,1019.74
2018-06-20T12:32:31.206Z,1019.66
2018-06-20T12:34:16.321Z,1019.63
2018-06-20T12:36:01.431Z,1019.55
2018-06-20T12:37:46.592Z,1019.54
2018-06-20T12:39:31.706Z,1019.51
2018-06-20T12:41:16.817Z,1019.47
2018-06-20T12:43:01.934Z,1019.40
2018-06-20T12:44:47.044Z,1019.39
2018-06-20T12:46:32.252Z,1019.41
2018-06-20T12:48:17.365Z,1019.44
2018-06-20T12:50:02.625Z,1019.34
2018-06-20T12:51:47.740Z,1019.31
2018-06-20T12:53:32.898Z,1019.27
2018-06-20T12:55:18.062Z,1019.33
2018-06-20T13:01:20.985Z,1019.13
2018-06-20T13:03:05.927Z,1019.04
2018-06-20T13:11:42.412Z,1019.11
2018-06-20T13:14:47.334Z,1019.00
2018-06-20T13:16:32.277Z,1018.96
2018-06-20T13:24:40.465Z,1018.88
2018-06-20T13:26:25.406Z,1018.88
2018-06-20T13:28:10.400Z,1018.95
2018-06-20T13:29:55.341Z,1018.89
2018-06-20T13:31:40.334Z,1018.96
2018-06-20T13:33:25.427Z,1018.84
2018-06-20T13:35:10.369Z,1018.84
2018-06-20T13:36:55.312Z,1018.77
2018-06-20T13:38:40.256Z,1018.79
2018-06-20T13:40:25.199Z,1018.80
2018-06-20T13:42:10.142Z,1018.75
2018-06-20T13:43:55.087Z,1018.64
2018-06-20T13:45:40.030Z,1018.80
2018-06-20T13:47:24.971Z,1018.77
2018-06-20T13:49:09.914Z,1018.67
2018-06-20T13:50:54.908Z,1018.65
2018-06-20T13:52:39.901Z,1018.56
2018-06-20T13:54:25.244Z,1018.58
2018-06-20T13:56:10.187Z,1018.42
2018-06-20T13:57:55.128Z,1018.57
2018-06-20T13:59:40.069Z,1018.47
2018-06-20T14:01:25.070Z,1018.42
2018-06-20T14:03:10.052Z,1018.44
2018-06-20T14:04:54.995Z,1018.35
2018-06-20T14:06:39.989Z,1018.35
2018-06-20T14:08:24.940Z,1018.30
2018-06-20T14:10:10.018Z,1018.25
2018-06-20T14:11:55.033Z,1018.25
2018-06-20T14:13:39.994Z,1018.22
2018-06-20T14:15:24.937Z,1018.22
2018-06-20T14:17:09.879Z,1018.16
2018-06-20T14:18:54.820Z,1018.08
2018-06-20T14:20:43.768Z,1018.06
2018-06-20T14:22:28.764Z,1018.07
2018-06-20T14:24:13.751Z,1018.06
2018-06-20T14:25:58.691Z,1018.14
2018-06-20T14:27:43.711Z,1018.01
2018-06-20T14:29:28.759Z,1018.09
2018-06-20T14:31:13.709Z,1017.96
2018-06-20T14:32:58.654Z,1018.06
2018-06-20T14:34:43.609Z,1018.06
2018-06-20T14:36:28.642Z,1018.08
2018-06-20T14:38:13.874Z,1018.10
2018-06-20T14:39:58.854Z,1018.13
2018-06-20T14:41:43.813Z,1018.14
2018-06-20T14:43:28.822Z,1018.11
2018-06-20T14:45:13.810Z,1018.05
2018-06-20T14:46:58.845Z,1018.06
2018-06-20T14:48:43.902Z,1017.95
2018-06-20T14:50:28.865Z,1017.89
2018-06-20T14:52:13.851Z,1017.89
2018-06-20T14:53:58.868Z,1017.96
2018-06-20T14:55:43.922Z,1017.93
2018-06-20T14:57:28.893Z,1017.89
2018-06-20T14:59:13.851Z,1018.02
2018-06-20T15:00:58.850Z,1017.92
2018-06-20T15:02:43.785Z,1018.00
2018-06-20T15:04:28.796Z,1017.91
2018-06-20T15:06:19.055Z,1017.91
2018-06-20T15:08:04.058Z,1017.94
2018-06-20T15:09:49.042Z,1017.99
2018-06-20T15:11:37.991Z,1018.02
2018-06-20T15:13:23.028Z,1017.93
2018-06-20T15:15:07.969Z,1017.96
2018-06-20T15:16:52.992Z,1017.94
2018-06-20T15:18:37.950Z,1018.06
2018-06-20T15:20:22.947Z,1017.94
2018-06-20T15:22:07.941Z,1018.00
2018-06-20T15:23:52.960Z,1018.00
2018-06-20T15:25:37.957Z,1017.97
2018-06-20T15:27:22.948Z,1017.92
2018-06-20T15:29:07.963Z,1017.77
2018-06-20T15:30:52.963Z,1017.85
2018-06-20T15:32:37.907Z,1017.88
2018-06-20T15:34:22.931Z,1017.80
2018-06-20T15:36:07.932Z,1017.64
2018-06-20T15:37:52.871Z,1017.73
2018-06-20T15:39:37.812Z,1017.67
2018-06-20T15:41:22.753Z,1017.59
2018-06-20T15:43:07.694Z,1017.66
2018-06-20T15:44:52.686Z,1017.59
2018-06-20T15:46:37.626Z,1017.61
2018-06-20T15:48:22.574Z,1017.57
2018-06-20T15:50:07.517Z,1017.53
2018-06-20T15:51:52.453Z,1017.48
2018-06-20T15:53:37.444Z,1017.45
2018-06-20T15:55:22.385Z,1017.45
2018-06-20T15:57:07.377Z,1017.50
2018-06-20T15:58:52.319Z,1017.53
2018-06-20T16:00:37.410Z,1017.61
2018-06-20T16:02:22.350Z,1017.68
2018-06-20T16:04:07.292Z,1017.79
2018-06-20T16:05:52.233Z,1017.83
2018-06-20T16:07:45.186Z,1017.82
2018-06-20T16:09:30.297Z,1017.78
2018-06-20T16:11:15.467Z,1017.82
2018-06-20T16:13:00.629Z,1017.94
2018-06-20T16:14:45.742Z,1018.00
2018-06-20T16:16:30.905Z,1018.03
2018-06-20T16:18:16.017Z,1018.06
2018-06-20T16:20:01.130Z,1018.01
2018-06-20T16:21:46.241Z,1018.00
2018-06-20T16:23:31.351Z,1018.00
2018-06-20T16:25:16.462Z,1018.02
2018-06-20T16:27:01.622Z,1018.13
2018-06-20T16:28:46.783Z,1018.14
2018-06-20T16:30:31.902Z,1018.04
2018-06-20T16:32:17.005Z,1018.06
2018-06-20T16:34:02.216Z,1018.06
2018-06-20T16:35:47.327Z,1018.08
2018-06-20T16:37:32.441Z,1018.06
2018-06-20T16:39:17.547Z,1017.93
2018-06-20T16:41:02.659Z,1018.02
2018-06-20T16:42:47.822Z,1017.96
2018-06-20T16:44:32.881Z,1017.91
2018-06-20T16:46:17.991Z,1017.90
2018-06-20T16:48:03.152Z,1018.00
2018-06-20T16:49:48.508Z,1017.96
2018-06-20T16:51:33.617Z,1017.93
2018-06-20T16:53:18.727Z,1017.98
2018-06-20T16:55:03.837Z,1017.90
2018-06-20T16:56:48.948Z,1017.86
2018-06-20T16:58:34.057Z,1017.80
2018-06-20T17:00:19.168Z,1017.77
2018-06-20T17:02:04.277Z,1017.73
2018-06-20T17:03:49.439Z,1017.60
2018-06-20T17:05:34.544Z,1017.67
2018-06-20T17:07:19.704Z,1017.62
2018-06-20T17:09:04.863Z,1017.80
2018-06-20T17:10:49.969Z,1017.73
2018-06-20T17:12:35.142Z,1017.78
2018-06-20T17:14:20.280Z,1017.82
2018-06-20T17:16:05.393Z,1017.76
2018-06-20T17:17:50.499Z,1017.78
2018-06-20T17:19:35.649Z,1017.75
2018-06-20T17:21:20.760Z,1017.76
2018-06-20T17:23:05.869Z,1017.62
2018-06-20T17:24:51.030Z,1017.65
2018-06-20T17:26:36.148Z,1017.69
2018-06-20T17:28:21.298Z,1017.69
2018-06-20T17:30:06.450Z,1017.62
2018-06-20T17:31:51.711Z,1017.56
2018-06-20T17:33:36.920Z,1017.49
2018-06-20T17:35:22.074Z,1017.50
2018-06-20T17:37:07.182Z,1017.48
2018-06-20T17:38:52.291Z,1017.41
2018-06-20T17:40:37.399Z,1017.50
2018-06-20T17:42:22.508Z,1017.56
2018-06-20T17:44:07.616Z,1017.58
2018-06-20T17:45:52.725Z,1017.75
2018-06-20T17:47:38.032Z,1017.82
2018-06-20T17:49:23.139Z,1017.85
2018-06-20T17:51:08.298Z,1017.88
2018-06-20T17:52:53.405Z,1018.02
2018-06-20T17:54:38.563Z,1018.13
2018-06-20T17:56:23.671Z,1018.09
2018-06-20T17:58:08.779Z,1018.22
2018-06-20T17:59:53.888Z,1018.35
2018-06-20T18:01:39.046Z,1018.36
2018-06-20T18:03:24.155Z,1018.40
2018-06-20T18:05:09.264Z,1018.54
2018-06-20T18:06:54.418Z,1018.64
2018-06-20T18:08:39.577Z,1018.57
2018-06-20T18:10:29.744Z,1018.48
2018-06-20T18:12:14.906Z,1018.49
2018-06-20T18:14:00.052Z,1018.48
2018-06-20T18:15:45.159Z,1018.50
2018-06-20T18:17:30.267Z,1018.63
2018-06-20T18:19:15.374Z,1018.75
2018-06-20T18:21:00.482Z,1019.11
2018-06-20T18:22:45.646Z,1019.48
2018-06-20T18:24:30.787Z,1019.31
2018-06-20T18:26:15.891Z,1019.10
2018-06-20T18:28:01.047Z,1019.17
2018-06-20T18:29:46.153Z,1019.26
2018-06-20T18:31:31.408Z,1019.35
2018-06-20T18:33:16.511Z,1019.30
2018-06-20T18:35:01.619Z,1019.39
2018-06-20T18:36:46.920Z,1019.44
2018-06-20T18:38:32.020Z,1019.28
2018-06-20T18:40:17.171Z,1019.19
2018-06-20T18:42:02.320Z,1019.19
2018-06-20T18:43:47.515Z,1019.12
2018-06-20T18:45:32.672Z,1019.11
2018-06-20T18:47:17.723Z,1019.05
2018-06-20T18:49:02.884Z,1019.04
2018-06-20T18:50:48.032Z,1019.01
2018-06-20T18:52:33.138Z,1019.05
2018-06-20T18:54:18.292Z,1019.10
2018-06-20T18:56:03.394Z,1019.03
2018-06-20T18:57:48.500Z,1019.03
2018-06-20T18:59:33.605Z,1019.01
2018-06-20T19:01:18.760Z,1019.00
2018-06-20T19:03:03.911Z,1018.98
2018-06-20T19:04:48.971Z,1018.93
2018-06-20T19:06:34.078Z,1018.90
2018-06-20T19:08:19.185Z,1018.69
2018-06-20T19:10:04.343Z,1018.66
2018-06-20T19:11:49.646Z,1018.63
2018-06-20T19:13:34.751Z,1018.48
2018-06-20T19:15:19.858Z,1018.35
2018-06-20T19:17:04.964Z,1018.21
2018-06-20T19:18:50.070Z,1018.30
2018-06-20T19:20:35.232Z,1018.42
2018-06-20T19:22:20.335Z,1018.32
2018-06-20T19:24:05.486Z,1018.23
2018-06-20T19:25:50.643Z,1018.26
2018-06-20T19:27:35.792Z,1018.20
2018-06-20T19:29:20.949Z,1018.18
2018-06-20T19:31:06.054Z,1018.30
2018-06-20T19:32:51.161Z,1018.33
2018-06-20T19:34:36.325Z,1018.39
2018-06-20T19:36:21.419Z,1018.37
2018-06-20T19:38:06.525Z,1018.48
2018-06-20T19:39:51.630Z,1018.53
2018-06-20T19:41:36.790Z,1018.47
2018-06-20T19:43:21.892Z,1018.33
2018-06-20T19:45:07.070Z,1018.43
2018-06-20T19:46:52.151Z,1018.36
2018-06-20T19:48:37.257Z,1018.42
2018-06-20T19:50:22.412Z,1018.34
2018-06-20T19:52:07.518Z,1018.31
2018-06-20T19:53:52.623Z,1018.35
2018-06-20T19:55:37.726Z,1018.32
2018-06-20T19:57:22.830Z,1018.32
2018-06-20T19:59:07.934Z,1018.15
2018-06-20T20:00:53.089Z,1018.28
2018-06-20T20:02:38.207Z,1018.42
2018-06-20T20:04:23.297Z,1018.60
2018-06-20T20:06:08.400Z,1018.60
2018-06-20T20:07:53.553Z,1018.48
2018-06-20T20:09:38.655Z,1018.55
2018-06-20T20:11:23.816Z,1018.62
2018-06-20T20:13:08.922Z,1018.76
2018-06-20T20:14:54.071Z,1018.79
2018-06-20T20:16:39.268Z,1018.83
2018-06-20T20:18:24.370Z,1018.85
2018-06-20T20:20:09.528Z,1018.94
2018-06-20T20:21:54.579Z,1018.98
2018-06-20T20:23:39.682Z,1019.03
2018-06-20T20:25:24.886Z,1019.13
2018-06-20T20:27:09.985Z,1019.17
2018-06-20T20:28:55.088Z,1019.33
2018-06-20T20:30:40.190Z,1019.18
2018-06-20T20:32:25.344Z,1019.20
2018-06-20T20:34:10.582Z,1019.20
2018-06-20T20:35:55.600Z,1019.26
2018-06-20T20:37:40.703Z,1019.31
2018-06-20T20:39:25.807Z,1019.23
2018-06-20T20:41:10.908Z,1019.26
2018-06-20T20:42:56.013Z,1019.32
2018-06-20T20:44:41.163Z,1019.29
2018-06-20T20:46:26.264Z,1019.44
2018-06-20T20:48:11.416Z,1019.42
2018-06-20T20:49:56.668Z,1019.23
2018-06-20T20:51:41.768Z,1019.27
2018-06-20T20:57:36.120Z,1019.30
2018-06-20T21:00:36.722Z,1019.49
2018-06-20T21:02:21.706Z,1019.44
2018-06-20T21:04:06.636Z,1019.51
2018-06-20T21:05:51.612Z,1019.57
2018-06-20T21:07:36.543Z,1019.64
2018-06-20T21:09:21.475Z,1019.61
2018-06-20T21:11:06.405Z,1019.67
2018-06-20T21:12:51.338Z,1019.76
2018-06-20T21:14:36.366Z,1019.76
2018-06-20T21:16:26.350Z,1019.86
2018-06-20T21:18:11.281Z,1019.83
2018-06-20T21:19:56.263Z,1019.78
2018-06-20T21:21:41.195Z,1019.82
2018-06-20T21:23:26.175Z,1019.84
2018-06-20T21:25:11.113Z,1019.76
2018-06-20T21:26:56.088Z,1019.80
2018-06-20T21:28:41.024Z,1019.82
2018-06-20T21:30:25.956Z,1019.78
2018-06-20T21:32:10.888Z,1019.74
2018-06-20T21:33:55.820Z,1019.70
2018-06-20T21:35:40.801Z,1019.71
2018-06-20T21:37:25.838Z,1019.71
2018-06-20T21:39:10.812Z,1019.66
2018-06-20T21:40:55.747Z,1019.63
2018-06-20T21:42:40.724Z,1019.64
2018-06-20T21:44:25.659Z,1019.70
2018-06-20T21:46:10.592Z,1019.54
2018-06-20T21:47:55.526Z,1019.53
2018-06-20T21:49:57.803Z,1019.63
2018-06-20T21:51:42.907Z,1019.61
2018-06-20T21:53:28.013Z,1019.59
2018-06-20T21:55:13.117Z,1019.61
2018-06-20T21:56:58.270Z,1019.55
2018-06-20T21:58:43.422Z,1019.60
2018-06-20T22:00:28.577Z,1019.55
2018-06-20T22:02:13.828Z,1019.61
2018-06-20T22:03:58.937Z,1019.64
2018-06-20T22:05:44.037Z,1019.75
2018-06-20T22:07:29.189Z,1019.88
2018-06-20T22:09:14.293Z,1019.99
2018-06-20T22:10:59.395Z,1020.06
2018-06-20T22:12:44.329Z,1020.18
2018-06-20T22:14:29.258Z,1020.17
2018-06-20T22:16:14.437Z,1019.99
2018-06-20T22:17:59.365Z,1020.00